Terminal Aerodrome Forecast
Issued by NWS Charleston, WV

Home | Current Version | Previous Version | Text Only | Print | Product List | Glossary On
Versions: 1 2 3 4 5 6 7 8 9 10 11 12 13 14 15 16 17 18 19 20 21 22 23 24 25 26 27 28 29 30 31 32
000
FTUS41 KRLX 211900 AAA
TAFEKN
TAF AMD
KEKN 211923Z 2119/2218 31008KT P6SM -SHRA SCT015 OVC040
      TEMPO 2119/2123 2SM -SHRA BR SCT008 BKN015 OVC025
     FM212300 29008KT P6SM OVC020
     FM220400 30009KT P6SM OVC018
     FM221600 34011G17KT P6SM OVC020=

USA.gov is the U.S. government's official web portal to all federal, state and local government web resources and services.